sensor_id;sensor_type;location;lat;lon;timestamp;P1;durP1;ratioP1;P2;durP2;ratioP2
22240;SDS011;11289;52.524;13.694;2022-08-19T00:01:19;15.40;;;11.25;;
22240;SDS011;11289;52.524;13.694;2022-08-19T00:03:45;20.48;;;13.10;;
22240;SDS011;11289;52.524;13.694;2022-08-19T00:06:10;17.42;;;12.43;;
22240;SDS011;11289;52.524;13.694;2022-08-19T00:08:36;17.65;;;12.70;;
22240;SDS011;11289;52.524;13.694;2022-08-19T00:11:02;14.80;;;11.93;;
22240;SDS011;11289;52.524;13.694;2022-08-19T00:13:27;19.45;;;13.10;;
22240;SDS011;11289;52.524;13.694;2022-08-19T00:15:54;13.60;;;12.02;;
22240;SDS011;11289;52.524;13.694;2022-08-19T00:18:20;16.58;;;12.23;;
22240;SDS011;11289;52.524;13.694;2022-08-19T00:20:45;18.75;;;12.63;;
22240;SDS011;11289;52.524;13.694;2022-08-19T00:23:11;14.90;;;13.32;;
22240;SDS011;11289;52.524;13.694;2022-08-19T00:25:36;17.00;;;14.02;;
22240;SDS011;11289;52.524;13.694;2022-08-19T00:28:02;14.98;;;13.55;;
22240;SDS011;11289;52.524;13.694;2022-08-19T00:30:29;15.25;;;12.48;;
22240;SDS011;11289;52.524;13.694;2022-08-19T00:32:55;13.52;;;12.13;;
22240;SDS011;11289;52.524;13.694;2022-08-19T00:35:21;13.95;;;12.05;;
22240;SDS011;11289;52.524;13.694;2022-08-19T00:37:47;15.05;;;12.48;;
22240;SDS011;11289;52.524;13.694;2022-08-19T00:40:13;15.68;;;12.93;;
22240;SDS011;11289;52.524;13.694;2022-08-19T00:42:39;14.40;;;12.90;;
22240;SDS011;11289;52.524;13.694;2022-08-19T00:45:08;14.40;;;13.02;;
22240;SDS011;11289;52.524;13.694;2022-08-19T00:47:38;14.25;;;12.63;;
22240;SDS011;11289;52.524;13.694;2022-08-19T00:50:04;16.15;;;12.50;;
22240;SDS011;11289;52.524;13.694;2022-08-19T00:52:32;14.43;;;12.93;;
22240;SDS011;11289;52.524;13.694;2022-08-19T00:55:00;13.93;;;12.50;;
22240;SDS011;11289;52.524;13.694;2022-08-19T00:57:32;13.93;;;12.52;;
22240;SDS011;11289;52.524;13.694;2022-08-19T01:00:05;14.27;;;12.88;;
22240;SDS011;11289;52.524;13.694;2022-08-19T01:02:35;15.30;;;13.45;;
22240;SDS011;11289;52.524;13.694;2022-08-19T01:05:05;16.02;;;13.07;;
22240;SDS011;11289;52.524;13.694;2022-08-19T01:07:35;13.98;;;12.43;;
22240;SDS011;11289;52.524;13.694;2022-08-19T01:10:02;14.52;;;13.20;;
22240;SDS011;11289;52.524;13.694;2022-08-19T01:12:29;16.48;;;14.50;;
22240;SDS011;11289;52.524;13.694;2022-08-19T01:14:55;15.52;;;14.02;;
22240;SDS011;11289;52.524;13.694;2022-08-19T01:17:21;16.40;;;14.50;;
22240;SDS011;11289;52.524;13.694;2022-08-19T01:19:47;17.38;;;15.15;;
22240;SDS011;11289;52.524;13.694;2022-08-19T01:22:16;16.35;;;14.65;;
22240;SDS011;11289;52.524;13.694;2022-08-19T01:24:46;15.73;;;14.23;;
22240;SDS011;11289;52.524;13.694;2022-08-19T01:27:12;18.08;;;14.23;;
22240;SDS011;11289;52.524;13.694;2022-08-19T01:29:38;17.67;;;15.88;;
22240;SDS011;11289;52.524;13.694;2022-08-19T01:32:06;18.55;;;15.50;;
22240;SDS011;11289;52.524;13.694;2022-08-19T01:34:33;17.38;;;15.60;;
22240;SDS011;11289;52.524;13.694;2022-08-19T01:36:59;17.35;;;15.18;;
22240;SDS011;11289;52.524;13.694;2022-08-19T01:39:30;19.75;;;15.65;;
22240;SDS011;11289;52.524;13.694;2022-08-19T01:41:55;19.83;;;16.25;;
22240;SDS011;11289;52.524;13.694;2022-08-19T01:44:20;20.60;;;15.50;;
22240;SDS011;11289;52.524;13.694;2022-08-19T01:46:48;16.20;;;14.48;;
22240;SDS011;11289;52.524;13.694;2022-08-19T01:49:17;18.15;;;15.18;;
22240;SDS011;11289;52.524;13.694;2022-08-19T01:51:44;19.17;;;14.88;;
22240;SDS011;11289;52.524;13.694;2022-08-19T01:54:11;17.05;;;15.02;;
22240;SDS011;11289;52.524;13.694;2022-08-19T01:59:16;16.77;;;15.05;;
22240;SDS011;11289;52.524;13.694;2022-08-19T02:01:44;16.50;;;14.48;;
22240;SDS011;11289;52.524;13.694;2022-08-19T02:04:09;15.43;;;13.68;;
22240;SDS011;11289;52.524;13.694;2022-08-19T02:06:35;14.20;;;12.75;;
22240;SDS011;11289;52.524;13.694;2022-08-19T02:09:01;16.75;;;14.82;;
22240;SDS011;11289;52.524;13.694;2022-08-19T02:11:30;17.85;;;14.85;;
22240;SDS011;11289;52.524;13.694;2022-08-19T02:13:58;15.75;;;14.18;;
22240;SDS011;11289;52.524;13.694;2022-08-19T02:16:26;15.77;;;14.18;;
22240;SDS011;11289;52.524;13.694;2022-08-19T02:18:52;15.43;;;13.80;;
22240;SDS011;11289;52.524;13.694;2022-08-19T02:21:18;16.38;;;14.63;;
22240;SDS011;11289;52.524;13.694;2022-08-19T02:23:45;17.05;;;15.45;;
22240;SDS011;11289;52.524;13.694;2022-08-19T02:26:11;15.35;;;13.80;;
22240;SDS011;11289;52.524;13.694;2022-08-19T02:28:37;15.88;;;14.32;;
22240;SDS011;11289;52.524;13.694;2022-08-19T02:31:08;16.17;;;14.63;;
22240;SDS011;11289;52.524;13.694;2022-08-19T02:36:05;16.08;;;14.38;;
22240;SDS011;11289;52.524;13.694;2022-08-19T02:38:31;16.92;;;15.20;;
22240;SDS011;11289;52.524;13.694;2022-08-19T02:41:01;17.02;;;15.32;;
22240;SDS011;11289;52.524;13.694;2022-08-19T02:43:31;17.60;;;15.85;;
22240;SDS011;11289;52.524;13.694;2022-08-19T02:46:12;17.23;;;15.43;;
22240;SDS011;11289;52.524;13.694;2022-08-19T02:48:43;17.02;;;15.30;;
22240;SDS011;11289;52.524;13.694;2022-08-19T02:51:09;20.17;;;15.95;;
22240;SDS011;11289;52.524;13.694;2022-08-19T02:53:42;16.55;;;14.15;;
22240;SDS011;11289;52.524;13.694;2022-08-19T02:56:08;18.55;;;15.63;;
22240;SDS011;11289;52.524;13.694;2022-08-19T02:58:34;16.70;;;15.00;;
22240;SDS011;11289;52.524;13.694;2022-08-19T03:00:59;16.05;;;14.40;;
22240;SDS011;11289;52.524;13.694;2022-08-19T03:03:33;16.77;;;15.15;;
22240;SDS011;11289;52.524;13.694;2022-08-19T03:06:12;16.98;;;15.07;;
22240;SDS011;11289;52.524;13.694;2022-08-19T03:08:41;15.45;;;13.98;;
22240;SDS011;11289;52.524;13.694;2022-08-19T03:11:13;16.33;;;14.73;;
22240;SDS011;11289;52.524;13.694;2022-08-19T03:13:39;18.70;;;14.90;;
22240;SDS011;11289;52.524;13.694;2022-08-19T03:16:05;16.38;;;14.60;;
22240;SDS011;11289;52.524;13.694;2022-08-19T03:18:30;16.58;;;14.93;;
22240;SDS011;11289;52.524;13.694;2022-08-19T03:20:56;16.23;;;14.73;;
22240;SDS011;11289;52.524;13.694;2022-08-19T03:23:21;16.45;;;14.70;;
22240;SDS011;11289;52.524;13.694;2022-08-19T03:25:48;16.23;;;14.63;;
22240;SDS011;11289;52.524;13.694;2022-08-19T03:28:15;17.90;;;15.93;;
22240;SDS011;11289;52.524;13.694;2022-08-19T03:30:41;16.02;;;14.52;;
22240;SDS011;11289;52.524;13.694;2022-08-19T03:33:08;15.98;;;14.32;;
22240;SDS011;11289;52.524;13.694;2022-08-19T03:35:36;16.17;;;14.55;;
22240;SDS011;11289;52.524;13.694;2022-08-19T03:38:03;15.75;;;14.15;;
22240;SDS011;11289;52.524;13.694;2022-08-19T03:40:29;17.33;;;15.52;;
22240;SDS011;11289;52.524;13.694;2022-08-19T03:42:55;16.92;;;15.00;;
22240;SDS011;11289;52.524;13.694;2022-08-19T03:45:21;16.67;;;15.02;;
22240;SDS011;11289;52.524;13.694;2022-08-19T03:47:47;17.05;;;15.27;;
22240;SDS011;11289;52.524;13.694;2022-08-19T03:50:13;16.60;;;14.90;;
22240;SDS011;11289;52.524;13.694;2022-08-19T03:52:38;16.25;;;14.55;;
22240;SDS011;11289;52.524;13.694;2022-08-19T03:55:04;16.85;;;15.05;;
22240;SDS011;11289;52.524;13.694;2022-08-19T03:57:30;15.80;;;14.30;;
22240;SDS011;11289;52.524;13.694;2022-08-19T03:59:55;16.00;;;14.43;;
22240;SDS011;11289;52.524;13.694;2022-08-19T04:02:21;16.70;;;15.07;;
22240;SDS011;11289;52.524;13.694;2022-08-19T04:04:46;17.63;;;15.60;;
22240;SDS011;11289;52.524;13.694;2022-08-19T04:07:13;15.57;;;14.07;;
22240;SDS011;11289;52.524;13.694;2022-08-19T04:09:46;17.83;;;15.35;;
22240;SDS011;11289;52.524;13.694;2022-08-19T04:12:11;16.05;;;14.48;;
22240;SDS011;11289;52.524;13.694;2022-08-19T04:14:37;17.00;;;15.30;;
22240;SDS011;11289;52.524;13.694;2022-08-19T04:17:03;15.68;;;14.13;;
22240;SDS011;11289;52.524;13.694;2022-08-19T04:19:32;14.88;;;13.40;;
22240;SDS011;11289;52.524;13.694;2022-08-19T04:21:59;15.43;;;13.93;;
22240;SDS011;11289;52.524;13.694;2022-08-19T04:24:24;14.68;;;13.25;;
22240;SDS011;11289;52.524;13.694;2022-08-19T04:26:50;16.60;;;14.57;;
22240;SDS011;11289;52.524;13.694;2022-08-19T04:29:17;15.73;;;14.23;;
22240;SDS011;11289;52.524;13.694;2022-08-19T04:31:46;15.35;;;13.90;;
22240;SDS011;11289;52.524;13.694;2022-08-19T04:34:14;15.60;;;13.40;;
22240;SDS011;11289;52.524;13.694;2022-08-19T04:36:43;15.55;;;13.95;;
22240;SDS011;11289;52.524;13.694;2022-08-19T04:39:14;13.93;;;12.68;;
22240;SDS011;11289;52.524;13.694;2022-08-19T04:41:41;15.45;;;13.85;;
22240;SDS011;11289;52.524;13.694;2022-08-19T04:44:25;14.07;;;12.60;;
22240;SDS011;11289;52.524;13.694;2022-08-19T04:46:51;15.38;;;13.98;;
22240;SDS011;11289;52.524;13.694;2022-08-19T04:49:21;15.82;;;14.13;;
22240;SDS011;11289;52.524;13.694;2022-08-19T04:51:47;15.10;;;13.65;;
22240;SDS011;11289;52.524;13.694;2022-08-19T04:54:15;15.23;;;13.73;;
22240;SDS011;11289;52.524;13.694;2022-08-19T04:56:42;14.98;;;13.48;;
22240;SDS011;11289;52.524;13.694;2022-08-19T04:59:08;14.75;;;13.20;;
22240;SDS011;11289;52.524;13.694;2022-08-19T05:01:35;14.90;;;13.43;;
22240;SDS011;11289;52.524;13.694;2022-08-19T05:04:02;14.20;;;12.80;;
22240;SDS011;11289;52.524;13.694;2022-08-19T05:06:29;16.90;;;14.00;;
22240;SDS011;11289;52.524;13.694;2022-08-19T05:08:59;15.95;;;14.35;;
22240;SDS011;11289;52.524;13.694;2022-08-19T05:11:26;15.35;;;13.98;;
22240;SDS011;11289;52.524;13.694;2022-08-19T05:13:54;15.05;;;13.45;;
22240;SDS011;11289;52.524;13.694;2022-08-19T05:16:21;15.00;;;13.60;;
22240;SDS011;11289;52.524;13.694;2022-08-19T05:18:47;13.85;;;12.57;;
22240;SDS011;11289;52.524;13.694;2022-08-19T05:21:31;17.00;;;13.93;;
22240;SDS011;11289;52.524;13.694;2022-08-19T05:24:16;16.00;;;14.50;;
22240;SDS011;11289;52.524;13.694;2022-08-19T05:26:43;16.23;;;14.65;;
22240;SDS011;11289;52.524;13.694;2022-08-19T05:29:11;16.67;;;14.85;;
22240;SDS011;11289;52.524;13.694;2022-08-19T05:31:38;16.33;;;14.63;;
22240;SDS011;11289;52.524;13.694;2022-08-19T05:34:04;16.63;;;15.02;;
22240;SDS011;11289;52.524;13.694;2022-08-19T05:36:34;17.90;;;16.02;;
22240;SDS011;11289;52.524;13.694;2022-08-19T05:39:11;17.25;;;15.45;;
22240;SDS011;11289;52.524;13.694;2022-08-19T05:41:43;18.27;;;15.70;;
22240;SDS011;11289;52.524;13.694;2022-08-19T05:44:09;18.98;;;17.05;;
22240;SDS011;11289;52.524;13.694;2022-08-19T05:46:36;18.25;;;16.33;;
22240;SDS011;11289;52.524;13.694;2022-08-19T05:49:03;18.60;;;16.88;;
22240;SDS011;11289;52.524;13.694;2022-08-19T05:51:30;19.23;;;17.23;;
22240;SDS011;11289;52.524;13.694;2022-08-19T05:53:57;19.33;;;16.73;;
22240;SDS011;11289;52.524;13.694;2022-08-19T05:56:23;19.10;;;17.23;;
22240;SDS011;11289;52.524;13.694;2022-08-19T05:58:49;20.45;;;17.08;;
22240;SDS011;11289;52.524;13.694;2022-08-19T06:01:15;19.75;;;17.75;;
22240;SDS011;11289;52.524;13.694;2022-08-19T06:03:42;18.38;;;16.50;;
22240;SDS011;11289;52.524;13.694;2022-08-19T06:06:12;21.52;;;19.45;;
22240;SDS011;11289;52.524;13.694;2022-08-19T06:08:39;21.58;;;17.95;;
22240;SDS011;11289;52.524;13.694;2022-08-19T06:11:19;20.50;;;18.60;;
22240;SDS011;11289;52.524;13.694;2022-08-19T06:13:51;20.83;;;18.73;;
22240;SDS011;11289;52.524;13.694;2022-08-19T06:16:18;20.52;;;18.52;;
22240;SDS011;11289;52.524;13.694;2022-08-19T06:18:45;21.48;;;19.15;;
22240;SDS011;11289;52.524;13.694;2022-08-19T06:21:11;21.35;;;19.25;;
22240;SDS011;11289;52.524;13.694;2022-08-19T06:23:37;20.48;;;18.40;;
22240;SDS011;11289;52.524;13.694;2022-08-19T06:26:03;21.92;;;19.83;;
22240;SDS011;11289;52.524;13.694;2022-08-19T06:28:29;23.48;;;20.05;;
22240;SDS011;11289;52.524;13.694;2022-08-19T06:30:54;21.83;;;19.38;;
22240;SDS011;11289;52.524;13.694;2022-08-19T06:33:20;20.33;;;18.25;;
22240;SDS011;11289;52.524;13.694;2022-08-19T06:35:45;21.88;;;19.65;;
22240;SDS011;11289;52.524;13.694;2022-08-19T06:38:10;23.08;;;20.75;;
22240;SDS011;11289;52.524;13.694;2022-08-19T06:40:36;21.73;;;19.73;;
22240;SDS011;11289;52.524;13.694;2022-08-19T06:43:03;22.20;;;20.00;;
22240;SDS011;11289;52.524;13.694;2022-08-19T06:45:28;21.20;;;19.17;;
22240;SDS011;11289;52.524;13.694;2022-08-19T06:47:55;21.67;;;19.58;;
22240;SDS011;11289;52.524;13.694;2022-08-19T06:50:21;23.27;;;19.83;;
22240;SDS011;11289;52.524;13.694;2022-08-19T06:52:47;22.33;;;20.15;;
22240;SDS011;11289;52.524;13.694;2022-08-19T06:55:14;23.00;;;20.75;;
22240;SDS011;11289;52.524;13.694;2022-08-19T06:57:40;21.20;;;19.20;;
22240;SDS011;11289;52.524;13.694;2022-08-19T07:00:07;21.92;;;19.70;;
22240;SDS011;11289;52.524;13.694;2022-08-19T07:02:39;23.50;;;20.88;;
22240;SDS011;11289;52.524;13.694;2022-08-19T07:05:06;23.08;;;20.88;;
22240;SDS011;11289;52.524;13.694;2022-08-19T07:07:32;21.90;;;19.80;;
22240;SDS011;11289;52.524;13.694;2022-08-19T07:09:59;21.85;;;19.42;;
22240;SDS011;11289;52.524;13.694;2022-08-19T07:12:26;23.70;;;21.50;;
22240;SDS011;11289;52.524;13.694;2022-08-19T07:14:59;23.00;;;20.70;;
22240;SDS011;11289;52.524;13.694;2022-08-19T07:17:25;23.45;;;21.23;;
22240;SDS011;11289;52.524;13.694;2022-08-19T07:19:50;23.30;;;19.75;;
22240;SDS011;11289;52.524;13.694;2022-08-19T07:22:16;22.25;;;19.92;;
22240;SDS011;11289;52.524;13.694;2022-08-19T07:24:43;21.92;;;19.48;;
22240;SDS011;11289;52.524;13.694;2022-08-19T07:27:08;24.30;;;21.83;;
22240;SDS011;11289;52.524;13.694;2022-08-19T07:29:35;22.98;;;20.83;;
22240;SDS011;11289;52.524;13.694;2022-08-19T07:32:02;21.63;;;19.63;;
22240;SDS011;11289;52.524;13.694;2022-08-19T07:34:29;21.23;;;19.23;;
22240;SDS011;11289;52.524;13.694;2022-08-19T07:36:58;22.95;;;20.52;;
22240;SDS011;11289;52.524;13.694;2022-08-19T07:39:25;22.65;;;20.45;;
22240;SDS011;11289;52.524;13.694;2022-08-19T07:41:53;21.67;;;19.70;;
22240;SDS011;11289;52.524;13.694;2022-08-19T07:44:19;22.95;;;20.55;;
22240;SDS011;11289;52.524;13.694;2022-08-19T07:46:47;22.27;;;20.23;;
22240;SDS011;11289;52.524;13.694;2022-08-19T07:49:16;22.52;;;20.20;;
22240;SDS011;11289;52.524;13.694;2022-08-19T07:51:54;22.17;;;20.08;;
22240;SDS011;11289;52.524;13.694;2022-08-19T07:54:23;22.33;;;20.02;;
22240;SDS011;11289;52.524;13.694;2022-08-19T07:56:50;22.25;;;20.15;;
22240;SDS011;11289;52.524;13.694;2022-08-19T07:59:16;20.92;;;18.95;;
22240;SDS011;11289;52.524;13.694;2022-08-19T08:01:42;21.23;;;19.30;;
22240;SDS011;11289;52.524;13.694;2022-08-19T08:04:09;21.83;;;19.55;;
22240;SDS011;11289;52.524;13.694;2022-08-19T08:06:54;22.17;;;20.08;;
22240;SDS011;11289;52.524;13.694;2022-08-19T08:09:39;22.95;;;20.25;;
22240;SDS011;11289;52.524;13.694;2022-08-19T08:12:11;21.77;;;19.50;;
22240;SDS011;11289;52.524;13.694;2022-08-19T08:14:47;20.95;;;18.85;;
22240;SDS011;11289;52.524;13.694;2022-08-19T08:17:16;23.83;;;21.33;;
22240;SDS011;11289;52.524;13.694;2022-08-19T08:19:44;21.52;;;19.42;;
22240;SDS011;11289;52.524;13.694;2022-08-19T08:22:10;22.67;;;20.35;;
22240;SDS011;11289;52.524;13.694;2022-08-19T08:25:00;21.52;;;19.40;;
22240;SDS011;11289;52.524;13.694;2022-08-19T08:27:35;22.42;;;20.33;;
22240;SDS011;11289;52.524;13.694;2022-08-19T08:30:02;22.95;;;20.75;;
22240;SDS011;11289;52.524;13.694;2022-08-19T08:32:29;22.20;;;20.05;;
22240;SDS011;11289;52.524;13.694;2022-08-19T08:34:55;22.48;;;20.15;;
22240;SDS011;11289;52.524;13.694;2022-08-19T08:37:20;22.38;;;20.05;;
22240;SDS011;11289;52.524;13.694;2022-08-19T08:39:47;21.70;;;19.52;;
22240;SDS011;11289;52.524;13.694;2022-08-19T08:42:15;22.00;;;19.85;;
22240;SDS011;11289;52.524;13.694;2022-08-19T08:45:01;21.15;;;18.83;;
22240;SDS011;11289;52.524;13.694;2022-08-19T08:47:38;21.13;;;18.48;;
22240;SDS011;11289;52.524;13.694;2022-08-19T08:50:13;19.92;;;18.02;;
22240;SDS011;11289;52.524;13.694;2022-08-19T08:52:45;20.90;;;18.75;;
22240;SDS011;11289;52.524;13.694;2022-08-19T08:55:14;19.50;;;17.67;;
22240;SDS011;11289;52.524;13.694;2022-08-19T09:00:38;22.20;;;18.63;;
22240;SDS011;11289;52.524;13.694;2022-08-19T09:03:19;20.25;;;18.17;;
22240;SDS011;11289;52.524;13.694;2022-08-19T09:10:53;19.88;;;17.95;;
22240;SDS011;11289;52.524;13.694;2022-08-19T09:13:28;19.42;;;17.63;;
22240;SDS011;11289;52.524;13.694;2022-08-19T09:16:10;18.48;;;16.13;;
22240;SDS011;11289;52.524;13.694;2022-08-19T09:18:44;19.58;;;17.73;;
22240;SDS011;11289;52.524;13.694;2022-08-19T09:21:14;20.23;;;18.17;;
22240;SDS011;11289;52.524;13.694;2022-08-19T09:23:40;20.33;;;18.17;;
22240;SDS011;11289;52.524;13.694;2022-08-19T09:26:08;18.45;;;16.75;;
22240;SDS011;11289;52.524;13.694;2022-08-19T09:28:39;19.15;;;16.83;;
22240;SDS011;11289;52.524;13.694;2022-08-19T09:31:12;20.60;;;17.02;;
22240;SDS011;11289;52.524;13.694;2022-08-19T09:33:40;18.77;;;16.85;;
22240;SDS011;11289;52.524;13.694;2022-08-19T09:36:09;17.58;;;15.90;;
22240;SDS011;11289;52.524;13.694;2022-08-19T09:38:36;16.45;;;14.85;;
22240;SDS011;11289;52.524;13.694;2022-08-19T09:41:05;19.75;;;15.40;;
22240;SDS011;11289;52.524;13.694;2022-08-19T09:43:33;16.05;;;14.40;;
22240;SDS011;11289;52.524;13.694;2022-08-19T09:46:02;16.88;;;14.90;;
22240;SDS011;11289;52.524;13.694;2022-08-19T09:48:31;16.58;;;14.88;;
22240;SDS011;11289;52.524;13.694;2022-08-19T09:51:04;17.25;;;15.43;;
22240;SDS011;11289;52.524;13.694;2022-08-19T09:53:35;17.02;;;15.02;;
22240;SDS011;11289;52.524;13.694;2022-08-19T09:56:01;17.08;;;15.48;;
22240;SDS011;11289;52.524;13.694;2022-08-19T09:58:27;19.70;;;17.75;;
22240;SDS011;11289;52.524;13.694;2022-08-19T10:00:54;18.48;;;16.48;;
22240;SDS011;11289;52.524;13.694;2022-08-19T10:03:20;19.63;;;17.65;;
22240;SDS011;11289;52.524;13.694;2022-08-19T10:05:46;19.05;;;17.23;;
22240;SDS011;11289;52.524;13.694;2022-08-19T10:08:22;19.55;;;17.75;;
22240;SDS011;11289;52.524;13.694;2022-08-19T10:10:50;21.63;;;18.52;;
22240;SDS011;11289;52.524;13.694;2022-08-19T10:13:18;19.17;;;17.20;;
22240;SDS011;11289;52.524;13.694;2022-08-19T10:15:50;18.23;;;16.52;;
22240;SDS011;11289;52.524;13.694;2022-08-19T10:18:17;17.15;;;15.55;;
22240;SDS011;11289;52.524;13.694;2022-08-19T10:20:45;18.33;;;16.40;;
22240;SDS011;11289;52.524;13.694;2022-08-19T10:23:12;18.10;;;16.40;;
22240;SDS011;11289;52.524;13.694;2022-08-19T10:25:38;18.15;;;16.35;;
22240;SDS011;11289;52.524;13.694;2022-08-19T10:28:04;19.08;;;17.10;;
22240;SDS011;11289;52.524;13.694;2022-08-19T10:30:31;18.83;;;17.02;;
22240;SDS011;11289;52.524;13.694;2022-08-19T10:32:56;18.20;;;16.52;;
22240;SDS011;11289;52.524;13.694;2022-08-19T10:35:22;18.08;;;16.27;;
22240;SDS011;11289;52.524;13.694;2022-08-19T10:37:47;17.70;;;15.90;;
22240;SDS011;11289;52.524;13.694;2022-08-19T10:40:13;19.35;;;17.50;;
22240;SDS011;11289;52.524;13.694;2022-08-19T10:42:38;18.17;;;16.15;;
22240;SDS011;11289;52.524;13.694;2022-08-19T10:45:04;18.88;;;16.95;;
22240;SDS011;11289;52.524;13.694;2022-08-19T10:47:31;17.42;;;15.85;;
22240;SDS011;11289;52.524;13.694;2022-08-19T10:49:57;16.92;;;15.23;;
22240;SDS011;11289;52.524;13.694;2022-08-19T10:52:47;19.60;;;17.35;;
22240;SDS011;11289;52.524;13.694;2022-08-19T10:55:13;18.02;;;16.40;;
22240;SDS011;11289;52.524;13.694;2022-08-19T10:57:57;17.65;;;15.95;;
22240;SDS011;11289;52.524;13.694;2022-08-19T11:00:23;17.38;;;15.32;;
22240;SDS011;11289;52.524;13.694;2022-08-19T11:02:49;18.60;;;16.20;;
22240;SDS011;11289;52.524;13.694;2022-08-19T11:05:15;17.75;;;15.95;;
22240;SDS011;11289;52.524;13.694;2022-08-19T11:07:42;18.65;;;16.60;;
22240;SDS011;11289;52.524;13.694;2022-08-19T11:10:08;15.77;;;14.32;;
22240;SDS011;11289;52.524;13.694;2022-08-19T11:12:38;18.55;;;16.88;;
22240;SDS011;11289;52.524;13.694;2022-08-19T11:15:05;17.27;;;15.48;;
22240;SDS011;11289;52.524;13.694;2022-08-19T11:17:33;18.67;;;15.18;;
22240;SDS011;11289;52.524;13.694;2022-08-19T11:20:01;17.45;;;14.18;;
22240;SDS011;11289;52.524;13.694;2022-08-19T11:22:29;17.45;;;15.73;;
22240;SDS011;11289;52.524;13.694;2022-08-19T11:24:54;16.60;;;14.95;;
22240;SDS011;11289;52.524;13.694;2022-08-19T11:27:20;15.60;;;14.10;;
22240;SDS011;11289;52.524;13.694;2022-08-19T11:29:45;15.55;;;14.05;;
22240;SDS011;11289;52.524;13.694;2022-08-19T11:32:11;15.00;;;13.60;;
22240;SDS011;11289;52.524;13.694;2022-08-19T11:34:39;17.35;;;15.55;;
22240;SDS011;11289;52.524;13.694;2022-08-19T11:37:05;17.00;;;15.10;;
22240;SDS011;11289;52.524;13.694;2022-08-19T11:39:31;15.93;;;14.32;;
22240;SDS011;11289;52.524;13.694;2022-08-19T11:41:58;17.13;;;15.43;;
22240;SDS011;11289;52.524;13.694;2022-08-19T11:44:26;15.73;;;14.15;;
22240;SDS011;11289;52.524;13.694;2022-08-19T11:46:55;14.85;;;13.43;;
22240;SDS011;11289;52.524;13.694;2022-08-19T11:49:21;15.40;;;13.80;;
22240;SDS011;11289;52.524;13.694;2022-08-19T11:51:47;16.00;;;14.38;;
22240;SDS011;11289;52.524;13.694;2022-08-19T11:54:14;14.88;;;13.40;;
22240;SDS011;11289;52.524;13.694;2022-08-19T11:56:41;15.48;;;14.07;;
22240;SDS011;11289;52.524;13.694;2022-08-19T11:59:07;15.05;;;13.65;;
22240;SDS011;11289;52.524;13.694;2022-08-19T12:01:33;13.70;;;12.30;;
22240;SDS011;11289;52.524;13.694;2022-08-19T12:03:59;15.23;;;13.73;;
22240;SDS011;11289;52.524;13.694;2022-08-19T12:06:25;17.85;;;13.68;;
22240;SDS011;11289;52.524;13.694;2022-08-19T12:08:57;14.30;;;12.85;;
22240;SDS011;11289;52.524;13.694;2022-08-19T12:11:25;15.60;;;13.98;;
22240;SDS011;11289;52.524;13.694;2022-08-19T12:13:51;14.73;;;13.18;;
22240;SDS011;11289;52.524;13.694;2022-08-19T12:16:21;15.48;;;13.88;;
22240;SDS011;11289;52.524;13.694;2022-08-19T12:18:49;14.60;;;13.23;;
22240;SDS011;11289;52.524;13.694;2022-08-19T12:21:16;14.10;;;12.80;;
22240;SDS011;11289;52.524;13.694;2022-08-19T12:23:46;17.35;;;15.65;;
22240;SDS011;11289;52.524;13.694;2022-08-19T12:26:13;16.17;;;13.82;;
22240;SDS011;11289;52.524;13.694;2022-08-19T12:28:40;14.40;;;13.02;;
22240;SDS011;11289;52.524;13.694;2022-08-19T12:31:06;15.07;;;13.77;;
22240;SDS011;11289;52.524;13.694;2022-08-19T12:33:32;12.48;;;11.27;;
22240;SDS011;11289;52.524;13.694;2022-08-19T12:36:02;13.52;;;12.23;;
22240;SDS011;11289;52.524;13.694;2022-08-19T12:38:29;14.35;;;13.00;;
22240;SDS011;11289;52.524;13.694;2022-08-19T12:40:55;13.45;;;12.00;;
22240;SDS011;11289;52.524;13.694;2022-08-19T12:43:21;13.90;;;12.50;;
22240;SDS011;11289;52.524;13.694;2022-08-19T12:45:46;13.52;;;12.20;;
22240;SDS011;11289;52.524;13.694;2022-08-19T12:48:12;12.50;;;11.20;;
22240;SDS011;11289;52.524;13.694;2022-08-19T12:50:42;12.57;;;11.38;;
22240;SDS011;11289;52.524;13.694;2022-08-19T12:53:10;13.02;;;11.68;;
22240;SDS011;11289;52.524;13.694;2022-08-19T12:55:36;11.88;;;10.75;;
22240;SDS011;11289;52.524;13.694;2022-08-19T12:58:01;11.32;;;10.32;;
22240;SDS011;11289;52.524;13.694;2022-08-19T13:00:27;11.43;;;10.43;;
22240;SDS011;11289;52.524;13.694;2022-08-19T13:02:53;12.23;;;11.10;;
22240;SDS011;11289;52.524;13.694;2022-08-19T13:05:21;12.05;;;10.95;;
22240;SDS011;11289;52.524;13.694;2022-08-19T13:07:48;11.93;;;10.27;;
22240;SDS011;11289;52.524;13.694;2022-08-19T13:10:17;11.93;;;10.73;;
22240;SDS011;11289;52.524;13.694;2022-08-19T13:12:45;16.85;;;11.13;;
22240;SDS011;11289;52.524;13.694;2022-08-19T13:15:13;13.02;;;11.73;;
22240;SDS011;11289;52.524;13.694;2022-08-19T13:17:43;11.82;;;10.60;;
22240;SDS011;11289;52.524;13.694;2022-08-19T13:20:09;11.20;;;9.93;;
22240;SDS011;11289;52.524;13.694;2022-08-19T13:22:36;12.77;;;11.43;;
22240;SDS011;11289;52.524;13.694;2022-08-19T13:25:03;12.55;;;11.45;;
22240;SDS011;11289;52.524;13.694;2022-08-19T13:27:30;11.68;;;10.52;;
22240;SDS011;11289;52.524;13.694;2022-08-19T13:29:55;12.18;;;11.07;;
22240;SDS011;11289;52.524;13.694;2022-08-19T13:32:39;10.93;;;10.02;;
22240;SDS011;11289;52.524;13.694;2022-08-19T13:35:23;13.07;;;11.52;;
22240;SDS011;11289;52.524;13.694;2022-08-19T13:37:49;12.73;;;11.27;;
22240;SDS011;11289;52.524;13.694;2022-08-19T13:40:16;12.93;;;11.75;;
22240;SDS011;11289;52.524;13.694;2022-08-19T13:42:48;12.70;;;11.40;;
22240;SDS011;11289;52.524;13.694;2022-08-19T13:45:16;12.93;;;11.50;;
22240;SDS011;11289;52.524;13.694;2022-08-19T13:47:48;13.93;;;12.63;;
22240;SDS011;11289;52.524;13.694;2022-08-19T13:50:16;13.05;;;11.82;;
22240;SDS011;11289;52.524;13.694;2022-08-19T13:52:43;13.32;;;12.02;;
22240;SDS011;11289;52.524;13.694;2022-08-19T13:55:09;12.50;;;11.40;;
22240;SDS011;11289;52.524;13.694;2022-08-19T13:57:36;13.70;;;11.63;;
22240;SDS011;11289;52.524;13.694;2022-08-19T14:00:06;12.40;;;11.23;;
22240;SDS011;11289;52.524;13.694;2022-08-19T14:02:35;13.35;;;12.05;;
22240;SDS011;11289;52.524;13.694;2022-08-19T14:05:02;12.30;;;11.20;;
22240;SDS011;11289;52.524;13.694;2022-08-19T14:07:28;14.13;;;12.63;;
22240;SDS011;11289;52.524;13.694;2022-08-19T14:09:53;12.85;;;11.73;;
22240;SDS011;11289;52.524;13.694;2022-08-19T14:12:19;12.80;;;11.57;;
22240;SDS011;11289;52.524;13.694;2022-08-19T14:14:45;13.77;;;12.50;;
22240;SDS011;11289;52.524;13.694;2022-08-19T14:17:12;12.57;;;11.43;;
22240;SDS011;11289;52.524;13.694;2022-08-19T14:19:37;13.32;;;12.13;;
22240;SDS011;11289;52.524;13.694;2022-08-19T14:22:03;12.82;;;11.35;;
22240;SDS011;11289;52.524;13.694;2022-08-19T14:24:29;13.70;;;11.52;;
22240;SDS011;11289;52.524;13.694;2022-08-19T14:26:54;13.20;;;12.00;;